createdAt,value
2022-08-17T00:00:43.757Z,1.67
2022-08-17T00:03:31.962Z,1.62
2022-08-17T00:06:04.760Z,1.52
2022-08-17T00:08:39.117Z,2.22
2022-08-17T00:11:11.698Z,1.60
2022-08-17T00:13:46.234Z,1.20
2022-08-17T00:16:22.573Z,1.42
2022-08-17T00:19:13.291Z,1.67
2022-08-17T00:22:32.714Z,1.62
2022-08-17T00:24:36.055Z,1.33
2022-08-17T00:27:04.311Z,1.33
2022-08-17T00:29:32.771Z,1.35
2022-08-17T00:33:10.958Z,1.62
2022-08-17T00:34:51.801Z,1.77
2022-08-17T00:37:20.371Z,1.67
2022-08-17T00:39:48.530Z,1.60
2022-08-17T00:42:18.816Z,1.90
2022-08-17T00:44:47.484Z,1.30
2022-08-17T00:47:15.697Z,2.05
2022-08-17T00:49:43.761Z,1.70
2022-08-17T00:52:16.907Z,1.62
2022-08-17T00:54:49.120Z,1.50
2022-08-17T00:57:21.727Z,1.62
2022-08-17T01:00:03.009Z,1.60
2022-08-17T01:02:41.332Z,1.90
2022-08-17T01:05:19.101Z,1.40
2022-08-17T01:07:53.338Z,1.23
2022-08-17T01:11:00.003Z,1.65
2022-08-17T01:13:16.228Z,1.52
2022-08-17T01:15:52.407Z,1.90
2022-08-17T01:18:21.683Z,1.70
2022-08-17T01:20:52.966Z,1.70
2022-08-17T01:23:24.284Z,1.50
2022-08-17T01:25:59.584Z,1.67
2022-08-17T01:28:33.414Z,1.50
2022-08-17T01:31:19.969Z,1.80
2022-08-17T01:33:48.649Z,1.55
2022-08-17T01:36:16.749Z,1.42
2022-08-17T01:38:44.981Z,1.60
2022-08-17T01:41:16.824Z,1.48
2022-08-17T01:43:49.661Z,1.65
2022-08-17T01:46:32.186Z,1.98
2022-08-17T01:49:01.438Z,1.87
2022-08-17T01:51:33.101Z,1.50
2022-08-17T01:54:14.790Z,1.60
2022-08-17T01:56:48.126Z,1.70
2022-08-17T01:59:18.361Z,1.42
2022-08-17T02:01:48.020Z,1.55
2022-08-17T02:04:16.983Z,1.70
2022-08-17T02:06:53.162Z,2.15
2022-08-17T02:09:25.903Z,1.62
2022-08-17T02:11:56.522Z,1.62
2022-08-17T02:14:26.028Z,1.83
2022-08-17T02:16:54.293Z,1.60
2022-08-17T02:19:23.065Z,1.77
2022-08-17T02:21:55.587Z,1.45
2022-08-17T02:25:00.386Z,1.60
2022-08-17T02:27:18.032Z,1.73
2022-08-17T02:29:47.162Z,1.73
2022-08-17T02:32:28.027Z,1.40
2022-08-17T02:34:58.110Z,1.40
2022-08-17T02:37:28.311Z,1.80
2022-08-17T02:39:58.383Z,1.70
2022-08-17T02:42:34.904Z,1.70
2022-08-17T02:45:06.134Z,2.10
2022-08-17T02:47:35.010Z,1.60
2022-08-17T02:50:06.666Z,1.75
2022-08-17T02:53:01.376Z,1.83
2022-08-17T02:55:37.862Z,1.50
2022-08-17T02:58:07.661Z,1.40
2022-08-17T03:00:42.568Z,1.50
2022-08-17T03:03:13.518Z,1.90
2022-08-17T03:05:41.932Z,2.22
2022-08-17T03:08:13.375Z,1.50
2022-08-17T03:10:43.377Z,1.65
2022-08-17T03:13:14.784Z,1.70
2022-08-17T03:15:47.553Z,1.98
2022-08-17T03:18:25.695Z,1.80
2022-08-17T03:20:56.749Z,1.95
2022-08-17T03:23:25.463Z,1.98
2022-08-17T03:25:54.672Z,1.65
2022-08-17T03:28:24.225Z,1.90
2022-08-17T03:30:52.651Z,1.40
2022-08-17T03:33:23.232Z,1.70
2022-08-17T03:35:52.126Z,1.58
2022-08-17T03:38:21.352Z,1.85
2022-08-17T03:40:58.542Z,1.55
2022-08-17T03:43:32.729Z,1.83
2022-08-17T03:46:33.877Z,1.80
2022-08-17T03:49:31.660Z,2.22
2022-08-17T03:52:18.640Z,1.62
2022-08-17T03:55:05.874Z,1.73
2022-08-17T03:57:34.136Z,1.73
2022-08-17T04:00:04.703Z,1.50
2022-08-17T04:02:42.289Z,1.87
2022-08-17T04:05:10.885Z,2.00
2022-08-17T04:07:39.009Z,1.60
2022-08-17T04:10:09.703Z,1.45
2022-08-17T04:12:46.493Z,1.73
2022-08-17T04:15:15.635Z,2.28
2022-08-17T04:17:44.715Z,1.40
2022-08-17T04:20:19.160Z,1.52
2022-08-17T04:23:02.720Z,1.65
2022-08-17T04:25:34.380Z,1.53
2022-08-17T04:28:04.345Z,1.70
2022-08-17T04:30:38.066Z,1.80
2022-08-17T04:33:09.523Z,1.40
2022-08-17T04:35:39.542Z,2.00
2022-08-17T04:38:10.847Z,1.85
2022-08-17T04:40:57.632Z,2.33
2022-08-17T04:43:28.152Z,1.77
2022-08-17T04:46:00.636Z,1.80
2022-08-17T04:48:36.858Z,1.67
2022-08-17T04:51:11.544Z,1.90
2022-08-17T04:56:16.092Z,2.05
2022-08-17T04:58:49.888Z,2.37
2022-08-17T05:01:24.032Z,1.75
2022-08-17T05:03:54.951Z,1.80
2022-08-17T05:06:23.836Z,2.05
2022-08-17T05:08:52.358Z,2.10
2022-08-17T05:11:22.144Z,2.10
2022-08-17T05:13:50.529Z,1.83
2022-08-17T05:16:20.565Z,1.98
2022-08-17T05:18:49.716Z,1.60
2022-08-17T05:21:20.186Z,2.22
2022-08-17T05:23:54.729Z,1.60
2022-08-17T05:26:26.679Z,1.80
2022-08-17T05:28:59.564Z,2.00
2022-08-17T05:31:29.618Z,2.17
2022-08-17T05:33:58.681Z,1.90
2022-08-17T05:36:41.786Z,2.40
2022-08-17T05:39:16.114Z,1.98
2022-08-17T05:41:48.272Z,2.20
2022-08-17T05:44:17.283Z,1.55
2022-08-17T05:46:50.877Z,2.17
2022-08-17T05:49:27.312Z,2.17
2022-08-17T05:53:00.373Z,1.45
2022-08-17T05:55:55.761Z,1.90
2022-08-17T05:58:33.646Z,2.28
2022-08-17T06:01:20.196Z,2.28
2022-08-17T06:04:16.607Z,2.00
2022-08-17T06:06:58.737Z,2.35
2022-08-17T06:09:46.120Z,2.17
2022-08-17T06:12:48.263Z,1.83
2022-08-17T06:16:04.678Z,2.22
2022-08-17T06:19:02.029Z,1.90
2022-08-17T06:21:36.224Z,1.87
2022-08-17T06:24:43.339Z,1.62
2022-08-17T06:27:38.828Z,2.28
2022-08-17T06:30:15.510Z,2.30
2022-08-17T06:32:46.299Z,1.83
2022-08-17T06:35:31.846Z,1.95
2022-08-17T06:38:37.144Z,2.97
2022-08-17T06:41:12.517Z,2.03
2022-08-17T06:46:39.197Z,1.98
2022-08-17T06:49:16.758Z,2.20
2022-08-17T06:51:54.688Z,1.67
2022-08-17T06:54:52.137Z,1.90
2022-08-17T06:57:28.584Z,2.22
2022-08-17T07:00:16.568Z,1.92
2022-08-17T07:02:57.580Z,1.98
2022-08-17T07:05:32.751Z,2.28
2022-08-17T07:08:16.828Z,1.80
2022-08-17T07:10:51.523Z,2.15
2022-08-17T07:16:21.969Z,2.28
2022-08-17T07:18:53.194Z,2.00
2022-08-17T07:21:47.394Z,2.17
2022-08-17T07:24:30.918Z,1.83
2022-08-17T07:27:11.879Z,1.92
2022-08-17T07:29:57.220Z,2.03
2022-08-17T07:32:41.535Z,1.60
2022-08-17T07:35:22.325Z,2.08
2022-08-17T07:38:25.835Z,2.20
2022-08-17T07:40:58.230Z,1.80
2022-08-17T07:43:35.390Z,1.73
2022-08-17T07:46:41.232Z,2.10
2022-08-17T07:49:09.539Z,2.03
2022-08-17T07:51:54.557Z,2.00
2022-08-17T07:54:37.851Z,1.95
2022-08-17T07:57:30.235Z,1.73
2022-08-17T07:59:59.655Z,2.50
2022-08-17T08:02:40.397Z,2.05
2022-08-17T08:05:49.162Z,2.17
2022-08-17T08:08:30.252Z,1.92
2022-08-17T08:11:28.395Z,1.90
2022-08-17T08:14:20.776Z,1.87
2022-08-17T08:17:09.362Z,2.08
2022-08-17T08:19:38.907Z,1.67
2022-08-17T08:22:22.328Z,1.80
2022-08-17T08:24:57.723Z,1.70
2022-08-17T08:27:48.759Z,2.35
2022-08-17T08:30:21.507Z,1.90
2022-08-17T08:33:05.665Z,1.70
2022-08-17T08:35:44.508Z,1.92
2022-08-17T08:38:27.337Z,1.80
2022-08-17T08:41:18.122Z,2.10
2022-08-17T08:44:59.536Z,1.65
2022-08-17T08:47:48.671Z,1.73
2022-08-17T08:50:38.728Z,2.25
2022-08-17T08:53:23.618Z,2.10
2022-08-17T08:55:54.727Z,1.85
2022-08-17T08:58:50.765Z,1.95
2022-08-17T09:01:27.794Z,1.70
2022-08-17T09:04:19.959Z,2.03
2022-08-17T09:07:36.747Z,2.20
2022-08-17T09:10:19.855Z,2.00
2022-08-17T09:13:22.127Z,2.08
2022-08-17T09:15:59.440Z,1.90
2022-08-17T09:19:03.478Z,1.90
2022-08-17T09:21:48.742Z,2.00
2022-08-17T09:24:40.112Z,2.17
2022-08-17T09:27:16.261Z,2.30
2022-08-17T09:29:59.028Z,2.08
2022-08-17T09:32:41.871Z,2.33
2022-08-17T09:35:19.427Z,2.17
2022-08-17T09:37:59.565Z,2.05
2022-08-17T09:40:38.892Z,2.37
2022-08-17T09:43:31.110Z,2.22
2022-08-17T09:46:09.024Z,2.20
2022-08-17T09:48:57.517Z,1.90
2022-08-17T09:51:35.092Z,2.50
2022-08-17T09:54:37.083Z,2.08
2022-08-17T09:57:29.803Z,2.15
2022-08-17T10:00:15.680Z,2.03
2022-08-17T10:02:54.455Z,2.08
2022-08-17T10:05:39.646Z,1.98
2022-08-17T10:08:44.703Z,2.17
2022-08-17T10:11:33.598Z,2.17
2022-08-17T10:14:37.887Z,2.17
2022-08-17T10:17:11.407Z,2.40
2022-08-17T10:19:56.373Z,2.17
2022-08-17T10:23:46.900Z,1.85
2022-08-17T10:26:23.957Z,2.05
2022-08-17T10:29:06.977Z,2.25
2022-08-17T10:31:49.703Z,2.27
2022-08-17T10:34:55.369Z,1.73
2022-08-17T10:37:49.474Z,1.90
2022-08-17T10:40:30.598Z,1.90
2022-08-17T10:43:20.105Z,2.20
2022-08-17T10:46:31.253Z,2.20
2022-08-17T10:49:11.746Z,2.05
2022-08-17T10:51:42.185Z,2.30
2022-08-17T10:54:47.330Z,1.92
2022-08-17T10:57:27.463Z,2.10
2022-08-17T11:00:14.783Z,2.10
2022-08-17T11:02:52.773Z,1.98
2022-08-17T11:05:47.335Z,1.98
2022-08-17T11:08:24.639Z,2.00
2022-08-17T11:10:58.021Z,1.60
2022-08-17T11:13:56.154Z,1.80
2022-08-17T11:16:40.527Z,1.98
2022-08-17T11:19:39.633Z,1.83
2022-08-17T11:22:11.162Z,2.00
2022-08-17T11:24:51.519Z,1.62
2022-08-17T11:27:34.308Z,1.85
2022-08-17T11:30:13.167Z,1.80
2022-08-17T11:32:48.701Z,1.60
2022-08-17T11:35:21.251Z,1.70
2022-08-17T11:38:46.174Z,1.77
2022-08-17T11:41:52.122Z,1.87
2022-08-17T11:44:59.623Z,1.50
2022-08-17T11:48:27.385Z,1.58
2022-08-17T11:51:25.559Z,1.62
2022-08-17T11:54:08.670Z,1.60
2022-08-17T11:56:47.336Z,1.48
2022-08-17T11:59:34.013Z,1.65
2022-08-17T12:02:35.024Z,1.15
2022-08-17T12:05:21.173Z,1.52
2022-08-17T12:08:15.270Z,1.37
2022-08-17T12:13:39.694Z,1.70
2022-08-17T12:16:16.721Z,1.30
2022-08-17T12:18:58.037Z,1.50
2022-08-17T12:21:37.989Z,1.77
2022-08-17T12:24:23.594Z,1.73
2022-08-17T12:27:04.537Z,1.80
2022-08-17T12:29:38.594Z,1.58
2022-08-17T12:32:17.887Z,1.60
2022-08-17T12:34:48.557Z,1.30
2022-08-17T12:37:21.801Z,1.50
2022-08-17T12:39:53.554Z,1.48
2022-08-17T12:42:29.631Z,1.70
2022-08-17T12:44:58.305Z,1.70
2022-08-17T12:47:30.090Z,1.60
2022-08-17T12:50:28.260Z,1.42
2022-08-17T12:53:02.719Z,1.45
2022-08-17T12:55:37.103Z,1.40
2022-08-17T12:58:08.950Z,1.60
2022-08-17T13:00:47.540Z,1.70
2022-08-17T13:03:25.538Z,1.67
2022-08-17T13:06:12.096Z,1.62
2022-08-17T13:08:47.678Z,1.70
2022-08-17T13:11:18.642Z,1.77
2022-08-17T13:13:54.300Z,1.67
2022-08-17T13:16:26.850Z,1.60
2022-08-17T13:19:16.575Z,1.60
2022-08-17T13:22:04.275Z,1.50
2022-08-17T13:24:37.864Z,1.60
2022-08-17T13:27:10.276Z,1.67
2022-08-17T13:29:51.185Z,1.30
2022-08-17T13:32:33.623Z,1.40
2022-08-17T13:35:28.249Z,1.55
2022-08-17T13:38:05.550Z,1.87
2022-08-17T13:40:44.948Z,1.40
2022-08-17T13:43:48.586Z,1.50
2022-08-17T13:46:28.570Z,1.58
2022-08-17T13:49:06.122Z,1.50
2022-08-17T13:51:46.370Z,1.37
2022-08-17T13:54:26.438Z,1.58
2022-08-17T13:57:01.394Z,1.50
2022-08-17T13:59:54.370Z,1.48
2022-08-17T14:02:25.994Z,1.48
2022-08-17T14:04:58.488Z,1.70
2022-08-17T14:07:32.251Z,1.40
2022-08-17T14:10:15.542Z,1.50
2022-08-17T14:12:45.345Z,1.52
2022-08-17T14:15:16.996Z,1.37
2022-08-17T14:17:45.320Z,1.58
2022-08-17T14:20:16.497Z,1.40
2022-08-17T14:22:49.670Z,1.25
2022-08-17T14:25:25.132Z,1.48
2022-08-17T14:27:54.327Z,1.40
2022-08-17T14:30:26.986Z,1.67
2022-08-17T14:32:58.627Z,1.40
2022-08-17T14:35:28.921Z,1.60
2022-08-17T14:37:57.708Z,1.30
2022-08-17T14:40:26.204Z,1.50
2022-08-17T14:42:57.887Z,1.40
2022-08-17T14:45:31.528Z,1.60
2022-08-17T14:48:07.967Z,1.23
2022-08-17T14:53:08.359Z,1.30
2022-08-17T14:55:39.883Z,1.48
2022-08-17T14:58:09.158Z,1.48
2022-08-17T15:00:39.043Z,1.58
2022-08-17T15:03:07.223Z,1.23
2022-08-17T15:05:38.136Z,1.27
2022-08-17T15:08:06.792Z,1.37
2022-08-17T15:10:36.072Z,1.50
2022-08-17T15:13:05.103Z,1.58
2022-08-17T15:15:33.320Z,1.40
2022-08-17T15:18:03.996Z,1.35
2022-08-17T15:20:33.442Z,1.40
2022-08-17T15:23:02.004Z,1.30
2022-08-17T15:25:32.366Z,1.35
2022-08-17T15:28:01.436Z,1.67
2022-08-17T15:30:30.800Z,1.50
2022-08-17T15:33:00.660Z,1.40
2022-08-17T15:35:32.668Z,1.35
2022-08-17T15:38:10.748Z,1.20
2022-08-17T15:40:48.548Z,1.20
2022-08-17T15:43:27.310Z,1.42
2022-08-17T15:46:00.438Z,1.45
2022-08-17T15:48:41.416Z,1.23
2022-08-17T15:51:17.044Z,1.15
2022-08-17T15:53:53.576Z,1.40
2022-08-17T15:56:22.840Z,1.12
2022-08-17T15:58:51.777Z,1.23
2022-08-17T16:03:13.737Z,1.60
2022-08-17T16:04:26.830Z,1.40
2022-08-17T16:07:00.344Z,1.15
2022-08-17T16:09:30.106Z,1.10
2022-08-17T16:11:58.383Z,1.20
2022-08-17T16:14:32.533Z,1.40
2022-08-17T16:17:04.981Z,1.02
2022-08-17T16:19:53.065Z,0.98
2022-08-17T16:22:39.396Z,1.40
2022-08-17T16:25:14.451Z,1.23
2022-08-17T16:27:43.567Z,1.27
2022-08-17T16:30:17.729Z,1.40
2022-08-17T16:32:48.566Z,0.95
2022-08-17T16:35:17.163Z,1.20
2022-08-17T16:37:45.823Z,1.23
2022-08-17T16:40:17.424Z,1.02
2022-08-17T16:42:48.422Z,1.00
2022-08-17T16:45:20.698Z,1.10
2022-08-17T16:47:50.285Z,1.05
2022-08-17T16:50:22.035Z,1.02
2022-08-17T16:52:51.258Z,1.27
2022-08-17T16:55:21.763Z,1.33
2022-08-17T16:57:50.885Z,1.30
2022-08-17T17:00:21.003Z,1.02
2022-08-17T17:02:49.752Z,1.27
2022-08-17T17:05:57.781Z,0.90
2022-08-17T17:08:53.851Z,0.98
2022-08-17T17:11:31.446Z,1.23
2022-08-17T17:14:03.976Z,0.93
2022-08-17T17:16:45.111Z,1.10
2022-08-17T17:19:34.708Z,0.90
2022-08-17T17:22:10.087Z,1.00
2022-08-17T17:24:49.976Z,1.20
2022-08-17T17:27:23.879Z,1.08
2022-08-17T17:30:05.162Z,1.30
2022-08-17T17:32:41.006Z,0.82
2022-08-17T17:35:32.442Z,1.00
2022-08-17T17:38:12.408Z,1.05
2022-08-17T17:40:47.802Z,1.02
2022-08-17T17:43:38.451Z,1.05
2022-08-17T17:46:27.560Z,1.05
2022-08-17T17:48:58.337Z,1.10
2022-08-17T17:52:06.537Z,1.08
2022-08-17T17:54:34.459Z,1.20
2022-08-17T17:57:26.937Z,1.60
2022-08-17T18:00:15.194Z,1.52
2022-08-17T18:03:20.955Z,1.20
2022-08-17T18:06:18.682Z,1.45
2022-08-17T18:09:09.053Z,1.45
2022-08-17T18:11:54.115Z,1.30
2022-08-17T18:14:30.276Z,1.30
2022-08-17T18:17:00.315Z,1.25
2022-08-17T18:19:30.751Z,1.10
2022-08-17T18:22:15.721Z,1.20
2022-08-17T18:24:48.215Z,1.25
2022-08-17T18:27:36.946Z,1.35
2022-08-17T18:30:12.674Z,0.95
2022-08-17T18:32:46.454Z,1.00
2022-08-17T18:35:14.745Z,1.20
2022-08-17T18:38:14.565Z,1.10
2022-08-17T18:40:45.616Z,1.15
2022-08-17T18:43:43.951Z,0.90
2022-08-17T18:46:28.417Z,1.02
2022-08-17T18:49:01.507Z,1.23
2022-08-17T18:51:39.895Z,1.33
2022-08-17T18:54:23.417Z,1.20
2022-08-17T18:56:59.181Z,1.05
2022-08-17T18:59:47.234Z,1.20
2022-08-17T19:05:31.721Z,1.23
2022-08-17T19:08:22.481Z,1.20
2022-08-17T19:11:01.296Z,1.17
2022-08-17T19:13:36.047Z,1.30
2022-08-17T19:16:19.090Z,1.23
2022-08-17T19:19:13.520Z,1.40
2022-08-17T19:21:47.357Z,1.30
2022-08-17T19:24:22.498Z,1.10
2022-08-17T19:26:56.742Z,1.10
2022-08-17T19:29:37.186Z,1.02
2022-08-17T19:32:09.511Z,1.02
2022-08-17T19:34:39.743Z,1.10
2022-08-17T19:37:32.412Z,1.17
2022-08-17T19:40:24.403Z,1.05
2022-08-17T19:43:28.827Z,1.48
2022-08-17T19:46:10.786Z,1.23
2022-08-17T19:49:16.044Z,1.25
2022-08-17T19:52:00.142Z,1.08
2022-08-17T19:54:40.130Z,1.35
2022-08-17T19:57:41.401Z,1.80
2022-08-17T20:00:15.651Z,1.02
2022-08-17T20:02:54.552Z,1.23
2022-08-17T20:06:12.084Z,1.10
2022-08-17T20:08:59.517Z,1.35
2022-08-17T20:11:51.573Z,1.20
2022-08-17T20:14:25.054Z,1.20
2022-08-17T20:16:53.281Z,1.30
2022-08-17T20:19:25.089Z,1.00
2022-08-17T20:22:03.836Z,1.27
2022-08-17T20:24:45.332Z,1.05
2022-08-17T20:27:21.753Z,1.00
2022-08-17T20:30:05.738Z,1.10
2022-08-17T20:32:57.062Z,1.02
2022-08-17T20:35:38.646Z,1.42
2022-08-17T20:38:11.066Z,1.35
2022-08-17T20:40:54.645Z,1.15
2022-08-17T20:43:33.611Z,0.95
2022-08-17T20:46:26.731Z,1.30
2022-08-17T20:49:16.818Z,1.55
2022-08-17T20:52:21.345Z,1.33
2022-08-17T20:54:53.715Z,1.30
2022-08-17T20:57:31.553Z,1.30
2022-08-17T21:00:16.758Z,1.10
2022-08-17T21:02:49.605Z,1.30
2022-08-17T21:05:34.364Z,1.33
2022-08-17T21:08:17.867Z,1.30
2022-08-17T21:10:47.332Z,1.35
2022-08-17T21:13:15.957Z,1.10
2022-08-17T21:15:59.014Z,1.37
2022-08-17T21:18:54.840Z,1.10
2022-08-17T21:21:34.716Z,1.10
2022-08-17T21:24:19.385Z,1.08
2022-08-17T21:27:25.117Z,1.30
2022-08-17T21:30:06.697Z,1.20
2022-08-17T21:32:42.145Z,1.33
2022-08-17T21:35:19.865Z,1.02
2022-08-17T21:37:53.316Z,1.20
2022-08-17T21:40:26.900Z,1.40
2022-08-17T21:43:05.108Z,1.20
2022-08-17T21:45:38.065Z,1.02
2022-08-17T21:48:09.357Z,1.20
2022-08-17T21:50:40.604Z,1.05
2022-08-17T21:53:13.854Z,1.23
2022-08-17T21:55:42.369Z,1.23
2022-08-17T21:58:28.987Z,1.25
2022-08-17T22:01:11.322Z,1.30
2022-08-17T22:03:41.268Z,1.25
2022-08-17T22:06:38.173Z,1.10
2022-08-17T22:09:39.077Z,1.10
2022-08-17T22:12:22.350Z,1.20
2022-08-17T22:15:02.478Z,1.15
2022-08-17T22:17:36.578Z,1.30
2022-08-17T22:23:06.875Z,1.00
2022-08-17T22:25:41.861Z,1.10
2022-08-17T22:28:12.353Z,1.00
2022-08-17T22:31:14.479Z,1.27
2022-08-17T22:33:49.439Z,1.10
2022-08-17T22:36:37.229Z,1.20
2022-08-17T22:39:08.458Z,1.10
2022-08-17T22:42:00.873Z,1.35
2022-08-17T22:44:37.618Z,2.17
2022-08-17T22:47:38.938Z,1.20
2022-08-17T22:50:22.202Z,1.20
2022-08-17T22:53:22.038Z,1.10
2022-08-17T22:56:13.815Z,1.35
2022-08-17T22:59:08.529Z,1.37
2022-08-17T23:01:38.413Z,1.37
2022-08-17T23:04:13.387Z,1.30
2022-08-17T23:06:44.414Z,1.17
2022-08-17T23:09:12.999Z,1.35
2022-08-17T23:11:49.442Z,1.40
2022-08-17T23:14:20.707Z,1.60
2022-08-17T23:16:50.443Z,1.50
2022-08-17T23:19:21.685Z,1.25
2022-08-17T23:21:52.810Z,1.40
2022-08-17T23:24:33.108Z,1.40
2022-08-17T23:27:02.441Z,1.30
2022-08-17T23:29:31.160Z,1.40
2022-08-17T23:32:01.439Z,1.30
2022-08-17T23:34:30.179Z,1.20
2022-08-17T23:36:58.633Z,1.37
2022-08-17T23:39:27.603Z,1.35
2022-08-17T23:41:59.130Z,1.00
2022-08-17T23:44:28.889Z,1.60
2022-08-17T23:46:57.509Z,1.50
2022-08-17T23:49:26.002Z,1.45
2022-08-17T23:51:55.230Z,1.70
2022-08-17T23:54:34.504Z,2.08
2022-08-17T23:57:04.864Z,1.40
2022-08-17T23:59:33.905Z,1.87
